紋別空港の過去48時間の天気

紋別空港 (Monbetsu)

現在時刻: 2/7 03:16 JST (2/6 18:16 UTC) 以下の時間は現地時間です。

過去48時間のMETAR気象情報
時間 風向 風速(m/s) 視程 気温(℃) 湿度(%) 気圧(hPa) 天気現象
6 16:00 北北東 2 2500m -6 93 1017 弱いしゅう雪
6 15:42 2 2300m -6 100 1017 弱いしゅう雪
6 15:14 北北東 3 1000m -5 93 1016 弱いしゅう雪
6 15:00 3 700m -5 100 1016 しゅう雪
6 14:04 北北西 5 1600m -5 100 1015 弱いしゅう雪
6 14:00 北北西 5 1000m -5 100 1015 弱いしゅう雪
6 13:40 北北西 6 600m -4 93 1015 しゅう雪
6 13:27 北北西 6 700m -4 100 1015 しゅう雪
6 13:13 北北西 6 1500m -4 93 1015 弱いしゅう雪
6 13:00 北北西 6 1400m -4 93 1015 弱いしゅう雪
6 12:27 北北西 6 4900m -4 93 1015 弱いしゅう雪
6 12:00 北北西 6 10km以上 -4 93 1015 弱いしゅう雪
6 11:00 北北西 3 10km以上 -4 86 1015
6 10:00 不定 1 10km以上 -5 79 1015
6 09:00 北西 2 10km以上 -7 86 1015
RJEB 060700Z 03003KT 2500 R32/2000N -SHSN FEW008 SCT010 BKN014 M06/M07 Q1017
RJEB 060642Z 01003KT 340V040 2300 R32/1500VP2000N -SHSN FEW004 SCT006 BKN011 M06/M06 Q1017 RMK 1ST004 4ST006 7ST011 A3003
RJEB 060614Z 02005KT 1000 R32/0900V1900U -SHSN FEW003 BKN004 BKN006 M05/M06 Q1016 RMK 1ST003 5ST004 7ST006 A3003
RJEB 060600Z 35005KT 0700 R32/0550V1700D SHSN FEW003 BKN004 BKN006 M05/M05 Q1016
RJEB 060504Z 34009KT 1600 R32/1200VP2000U -SHSN FEW006 BKN007 BKN010 M05/M05 Q1015 RMK 1ST006 5ST007 7ST010 A3000
RJEB 060500Z 34010KT 1000 R32/1200V2000U -SHSN FEW006 BKN007 BKN010 M05/M05 Q1015
RJEB 060440Z 33012KT 0600 R32/1000V1400D SHSN FEW006 BKN007 BKN010 M04/M05 Q1015 RMK 1ST006 5ST007 7ST010 A2999
RJEB 060427Z 33012KT 0700 R32/1100VP2000D SHSN FEW006 BKN010 M04/M04 Q1015 RMK 1ST006 7ST010 A2999
RJEB 060413Z 33011KT 1500 R32/1000VP2000U -SHSN FEW004 BKN010 BKN012 M04/M05 Q1015 RMK 1ST004 5ST010 7ST012 A2999
RJEB 060400Z 33011KT 1400 R32/1200VP2000D -SHSN FEW004 BKN010 BKN012 M04/M05 Q1015
RJEB 060327Z 33012KT 4900 -SHSN FEW006 BKN014 BKN018 M04/M05 Q1015 RMK 1ST006 5ST014 6ST018 A2998
RJEB 060300Z 33012KT 9999 -SHSN FEW008 SCT015 BKN020 M04/M05 Q1015
RJEB 060200Z 34005KT 9999 FEW030 BKN040 M04/M06 Q1015
RJEB 060100Z VRB01KT 9999 FEW030 SCT040 M05/M08 Q1015
RJEB 060000Z 32004KT 9999 FEW030 M07/M09 Q1015